Time;durP1;ratioP1;P1;durP2;ratioP2;P2;SDS_P1;SDS_P2;PMS_P1;PMS_P2;Temp;Humidity;BMP_temperature;BMP_pressure;BME280_temperature;BME280_humidity;BME280_pressure;Samples;Min_cycle;Max_cycle;Signal;HPM_P1;HPM_P2
2023/05/27 00:00:09;;;;;;;11.68;10.00;;;;;;;12.19;86.27;94878.06;5045674;28;20033;-70
2023/05/27 00:02:34;;;;;;;14.50;10.13;;;;;;;12.32;87.52;94890.03;5025264;28;20499;-70
2023/05/27 00:05:00;;;;;;;14.77;11.15;;;;;;;12.17;89.54;94894.78;5043620;28;20049;-71
2023/05/27 00:07:25;;;;;;;14.40;10.25;;;;;;;12.07;91.50;94890.38;5020609;28;20083;-70
2023/05/27 00:09:51;;;;;;;15.65;11.10;;;;;;;11.94;92.87;94876.78;5043553;28;20048;-70
2023/05/27 00:12:16;;;;;;;15.63;12.27;;;;;;;11.97;93.76;94884.31;5051175;28;20497;-70
2023/05/27 00:14:42;;;;;;;16.58;12.38;;;;;;;12.07;94.30;94877.38;5015362;28;20067;-70
2023/05/27 00:17:09;;;;;;;17.85;12.75;;;;;;;12.23;94.40;94874.25;5031578;28;20029;-70
2023/05/27 00:19:35;;;;;;;20.27;13.15;;;;;;;11.98;94.86;94846.94;5014515;28;20112;-71
2023/05/27 00:22:00;;;;;;;16.17;11.55;;;;;;;12.22;95.04;94882.19;5030873;28;20112;-71
2023/05/27 00:24:26;;;;;;;17.27;11.25;;;;;;;12.46;95.04;94881.81;5039470;28;20061;-70
2023/05/27 00:26:51;;;;;;;23.90;14.55;;;;;;;12.30;94.84;94859.69;5050735;28;20474;-71
2023/05/27 00:29:17;;;;;;;20.08;14.02;;;;;;;12.55;94.53;94867.94;5032850;28;20037;-71
2023/05/27 00:31:42;;;;;;;15.65;12.05;;;;;;;12.65;92.97;94860.13;5033604;28;20032;-70
2023/05/27 00:34:08;;;;;;;16.58;11.50;;;;;;;12.56;93.02;94872.19;5024578;28;20472;-70
2023/05/27 00:36:33;;;;;;;14.93;10.73;;;;;;;12.61;92.81;94866.56;5019367;28;20040;-71
2023/05/27 00:39:00;;;;;;;10.80;8.98;;;;;;;12.69;91.18;94864.09;5032589;28;20041;-71
2023/05/27 00:41:26;;;;;;;11.05;8.68;;;;;;;12.64;91.59;94858.47;5031148;28;20433;-70
2023/05/27 00:43:51;;;;;;;11.00;7.82;;;;;;;12.80;90.23;94856.13;5020397;28;20029;-70
2023/05/27 00:46:17;;;;;;;9.43;6.50;;;;;;;12.61;91.01;94853.53;5009719;28;20037;-71
2023/05/27 00:48:42;;;;;;;8.40;5.50;;;;;;;12.46;91.46;94847.94;5051063;28;20086;-70
2023/05/27 00:51:08;;;;;;;6.55;5.10;;;;;;;12.42;92.23;94841.34;5016537;28;20056;-71
2023/05/27 00:53:39;;;;;;;6.47;4.40;;;;;;;12.51;91.54;94849.16;5049013;28;20041;-71
2023/05/27 00:56:04;;;;;;;6.20;4.55;;;;;;;12.59;90.21;94840.66;5024475;28;20075;-71
2023/05/27 00:58:30;;;;;;;4.38;3.25;;;;;;;12.62;89.53;94831.72;5014350;28;20045;-70
2023/05/27 01:00:56;;;;;;;4.97;3.28;;;;;;;12.61;90.00;94824.88;5020137;28;20552;-70
2023/05/27 01:03:21;;;;;;;4.25;2.90;;;;;;;12.52;89.79;94823.91;5049022;28;20487;-71
2023/05/27 01:05:46;;;;;;;4.35;3.25;;;;;;;12.39;90.23;94818.16;5049539;28;20130;-70
2023/05/27 01:08:29;;;;;;;6.75;3.15;;;;;;;12.45;89.86;94794.16;5014120;28;20026;-70
2023/05/27 01:10:54;;;;;;;6.78;3.38;;;;;;;12.45;90.17;94797.63;5019717;28;20048;-71
2023/05/27 01:13:35;;;;;;;4.20;3.08;;;;;;;12.61;89.30;94809.22;5049179;28;20041;-71
2023/05/27 01:16:02;;;;;;;4.57;3.47;;;;;;;12.51;89.82;94810.06;5051585;28;20105;-71
2023/05/27 01:18:29;;;;;;;6.15;3.65;;;;;;;12.66;89.12;94804.44;5050328;28;20095;-71
2023/05/27 01:20:56;;;;;;;7.90;3.22;;;;;;;12.53;88.65;94786.47;5032273;28;20107;-71
2023/05/27 01:23:21;;;;;;;3.85;3.08;;;;;;;12.60;88.62;94790.19;5050118;28;20123;-71
2023/05/27 01:25:47;;;;;;;5.13;3.05;;;;;;;12.61;88.92;94791.81;5029908;28;20033;-70
2023/05/27 01:28:12;;;;;;;4.60;2.88;;;;;;;12.58;88.60;94767.81;5040510;28;20455;-71
2023/05/27 01:30:38;;;;;;;5.47;3.35;;;;;;;12.62;88.86;94783.06;5033618;28;20041;-70
2023/05/27 01:33:08;;;;;;;5.00;3.40;;;;;;;12.49;89.59;94778.13;5037801;28;20020;-71
2023/05/27 01:35:40;;;;;;;3.97;3.38;;;;;;;12.56;90.31;94782.78;5017520;28;20033;-71
2023/05/27 01:38:07;;;;;;;4.53;3.40;;;;;;;12.73;88.66;94774.22;5042301;28;20091;-71
2023/05/27 01:40:33;;;;;;;5.63;3.03;;;;;;;12.59;89.24;94761.63;5033328;28;20526;-71
2023/05/27 01:42:59;;;;;;;3.70;3.20;;;;;;;12.62;89.39;94769.16;5033173;28;20036;-71
2023/05/27 01:45:25;;;;;;;3.50;2.85;;;;;;;12.49;89.85;94752.06;5020742;28;20100;-70
2023/05/27 01:47:51;;;;;;;6.53;3.00;;;;;;;12.70;88.63;94764.09;5013697;28;20038;-71
2023/05/27 01:50:16;;;;;;;4.05;3.28;;;;;;;12.52;89.40;94754.38;5030417;28;20115;-71
2023/05/27 01:52:42;;;;;;;4.03;3.00;;;;;;;12.69;89.08;94770.28;5029837;28;20038;-70
2023/05/27 01:55:08;;;;;;;4.20;3.30;;;;;;;12.61;89.21;94770.16;5030048;28;20029;-70
2023/05/27 01:57:33;;;;;;;3.70;3.10;;;;;;;12.43;89.29;94760.44;5030677;28;20097;-71
2023/05/27 01:59:59;;;;;;;5.47;3.15;;;;;;;12.48;89.05;94775.63;5013474;28;20021;-71
2023/05/27 02:02:25;;;;;;;4.20;3.78;;;;;;;12.26;89.47;94750.75;5030663;28;20030;-71
2023/05/27 02:04:50;;;;;;;5.35;4.50;;;;;;;12.36;89.71;94788.00;5031572;28;20025;-70
2023/05/27 02:07:16;;;;;;;4.15;3.38;;;;;;;12.65;87.05;94771.53;5033436;28;20447;-70
2023/05/27 02:09:43;;;;;;;3.78;3.38;;;;;;;12.90;85.93;94776.13;5048622;28;20123;-71
2023/05/27 02:12:08;;;;;;;4.13;3.35;;;;;;;12.85;86.71;94780.94;5041524;28;20025;-71
2023/05/27 02:14:38;;;;;;;5.45;3.65;;;;;;;12.95;85.28;94783.50;5014218;28;20026;-71
2023/05/27 02:17:04;;;;;;;5.88;3.10;;;;;;;12.73;86.56;94782.88;5049447;28;20509;-71
2023/05/27 02:19:29;;;;;;;4.35;2.88;;;;;;;12.58;87.62;94791.28;5049607;28;20025;-71
2023/05/27 02:21:55;;;;;;;4.38;3.05;;;;;;;12.52;88.10;94777.03;5036605;28;20033;-71
2023/05/27 02:24:20;;;;;;;8.98;3.30;;;;;;;12.42;88.85;94782.22;5030013;28;20032;-71
2023/05/27 02:26:45;;;;;;;4.45;3.10;;;;;;;12.42;88.39;94774.41;5044777;28;20120;-71
2023/05/27 02:29:11;;;;;;;5.93;2.88;;;;;;;12.37;88.56;94774.03;5049568;28;20029;-71
2023/05/27 02:31:36;;;;;;;5.30;2.80;;;;;;;12.44;88.52;94779.50;5032673;28;20033;-71
2023/05/27 02:34:02;;;;;;;5.15;2.83;;;;;;;12.29;88.41;94779.94;5041128;28;20029;-71
2023/05/27 02:36:27;;;;;;;6.47;2.50;;;;;;;12.34;87.09;94776.91;5030579;28;20036;-70
2023/05/27 02:38:53;;;;;;;3.92;2.25;;;;;;;12.40;86.51;94780.75;5030464;28;20037;-70
2023/05/27 02:41:18;;;;;;;3.75;2.10;;;;;;;12.43;85.56;94783.91;5029379;28;20526;-70
2023/05/27 02:43:44;;;;;;;5.18;2.40;;;;;;;12.43;85.97;94781.28;5029267;28;20041;-70
2023/05/27 02:46:09;;;;;;;2.60;2.30;;;;;;;12.39;85.81;94792.13;5035016;28;20033;-71
2023/05/27 02:48:34;;;;;;;4.15;2.28;;;;;;;12.39;85.61;94784.31;5049201;28;20063;-71
2023/05/27 02:51:00;;;;;;;2.90;2.10;;;;;;;12.35;86.08;94783.75;5031734;28;20041;-70
2023/05/27 02:53:25;;;;;;;3.20;2.45;;;;;;;12.24;87.52;94784.72;5012728;28;20084;-71
2023/05/27 02:55:52;;;;;;;5.13;2.30;;;;;;;12.33;86.90;94777.84;5030014;28;20040;-70
2023/05/27 02:58:17;;;;;;;4.47;2.28;;;;;;;12.43;86.81;94785.69;5014038;28;20033;-70
2023/05/27 03:00:42;;;;;;;2.80;2.20;;;;;;;12.40;87.02;94775.53;5023019;28;20022;-70
2023/05/27 03:03:08;;;;;;;3.58;2.20;;;;;;;12.32;87.48;94776.22;5028935;28;20030;-71
2023/05/27 03:05:34;;;;;;;4.78;2.55;;;;;;;12.48;86.88;94776.50;5024530;28;20032;-70
2023/05/27 03:08:00;;;;;;;3.58;2.65;;;;;;;12.48;86.85;94776.50;5048861;28;20171;-71
2023/05/27 03:10:26;;;;;;;2.92;2.30;;;;;;;12.49;87.24;94766.88;5050574;28;20392;-70
2023/05/27 03:12:54;;;;;;;4.75;2.53;;;;;;;12.48;86.91;94771.28;5048913;28;20032;-71
2023/05/27 03:15:21;;;;;;;3.22;2.13;;;;;;;12.37;87.25;94763.63;5016089;28;20074;-70
2023/05/27 03:17:47;;;;;;;3.28;2.42;;;;;;;12.36;87.78;94780.19;5016270;28;20495;-70
2023/05/27 03:20:12;;;;;;;4.93;2.47;;;;;;;12.54;87.04;94782.94;5028301;28;20029;-70
2023/05/27 03:22:38;;;;;;;2.83;2.47;;;;;;;12.42;87.59;94782.22;5073674;28;20493;-71
2023/05/27 03:25:04;;;;;;;4.85;2.70;;;;;;;12.33;87.06;94767.44;5072693;28;20036;-71
2023/05/27 03:27:30;;;;;;;3.40;2.33;;;;;;;12.41;87.45;94778.00;5059204;28;20033;-71
2023/05/27 03:29:55;;;;;;;3.47;2.28;;;;;;;12.47;87.79;94780.03;5031831;28;20041;-70
2023/05/27 03:32:21;;;;;;;3.28;2.53;;;;;;;12.59;87.15;94766.84;5032026;28;20405;-70
2023/05/27 03:34:46;;;;;;;2.92;2.22;;;;;;;12.79;86.53;94775.44;5029589;28;20037;-70
2023/05/27 03:37:13;;;;;;;5.72;5.00;;;;;;;12.84;86.12;94786.28;5053414;28;20037;-70
2023/05/27 03:39:39;;;;;;;5.65;2.20;;;;;;;12.69;86.21;94781.50;5052397;28;20052;-71
2023/05/27 03:42:05;;;;;;;4.28;2.42;;;;;;;12.54;86.99;94790.75;5031617;28;20122;-71
2023/05/27 03:44:31;;;;;;;3.53;2.30;;;;;;;12.43;87.16;94798.72;5033744;28;20141;-71
2023/05/27 03:46:57;;;;;;;3.17;2.40;;;;;;;12.45;87.36;94789.78;5033330;28;20029;-70
2023/05/27 03:49:22;;;;;;;3.67;2.42;;;;;;;12.34;88.22;94789.94;5032279;28;20064;-71
2023/05/27 03:51:48;;;;;;;5.13;3.05;;;;;;;12.45;88.76;94795.00;5032067;28;20037;-71
2023/05/27 03:54:13;;;;;;;3.72;2.80;;;;;;;12.43;88.94;94799.53;5043680;28;20116;-71
2023/05/27 03:56:39;;;;;;;3.13;2.67;;;;;;;12.69;87.98;94802.34;5053095;28;20029;-71
2023/05/27 03:59:06;;;;;;;2.80;2.40;;;;;;;12.85;87.20;94803.56;5017299;28;20091;-71
2023/05/27 04:01:31;;;;;;;3.17;2.33;;;;;;;12.92;86.46;94799.41;5033247;28;20033;-71
2023/05/27 04:03:57;;;;;;;3.13;2.40;;;;;;;12.93;86.11;94798.47;5032924;28;20059;-71
2023/05/27 04:06:22;;;;;;;3.15;2.50;;;;;;;12.93;86.63;94807.13;5051635;28;20029;-69
2023/05/27 04:08:47;;;;;;;2.70;2.30;;;;;;;12.77;86.83;94801.66;5046561;28;20072;-72
2023/05/27 04:11:13;;;;;;;3.08;2.58;;;;;;;12.72;87.53;94814.28;5039127;28;20049;-71
2023/05/27 04:13:39;;;;;;;3.75;2.53;;;;;;;12.62;87.89;94797.84;5049241;28;20095;-71
2023/05/27 04:16:05;;;;;;;3.42;2.30;;;;;;;12.96;87.31;94806.00;5033467;28;20037;-72
2023/05/27 04:18:30;;;;;;;3.95;2.45;;;;;;;13.00;86.51;94806.53;5039533;28;20549;-72
2023/05/27 04:20:58;;;;;;;3.28;2.33;;;;;;;12.86;87.03;94800.00;5023086;28;20503;-70
2023/05/27 04:23:23;;;;;;;3.25;2.20;;;;;;;13.02;87.33;94804.63;5031590;28;20037;-70
2023/05/27 04:25:49;;;;;;;2.50;2.00;;;;;;;13.15;86.37;94795.53;5038985;28;20075;-70
2023/05/27 04:28:15;;;;;;;2.90;2.15;;;;;;;13.14;86.58;94803.47;5023434;28;20416;-70
2023/05/27 04:30:41;;;;;;;2.40;2.10;;;;;;;13.08;86.79;94783.19;5015737;28;20047;-69
2023/05/27 04:33:07;;;;;;;4.47;2.17;;;;;;;13.24;86.27;94795.63;5033226;28;20029;-70
2023/05/27 04:35:33;;;;;;;3.30;2.53;;;;;;;13.16;86.50;94797.16;5028003;28;20033;-70
2023/05/27 04:38:00;;;;;;;3.13;2.28;;;;;;;13.33;85.71;94798.22;5042138;28;20027;-70
2023/05/27 04:40:26;;;;;;;3.53;2.45;;;;;;;13.48;85.51;94810.78;5039393;28;20192;-70
2023/05/27 04:42:52;;;;;;;4.60;2.50;;;;;;;13.40;85.68;94817.56;5025074;28;20111;-70
2023/05/27 04:45:18;;;;;;;4.00;2.67;;;;;;;13.30;86.07;94814.16;5028072;28;20523;-70
2023/05/27 04:47:44;;;;;;;3.72;2.33;;;;;;;13.17;86.50;94797.97;5045461;28;20044;-70
2023/05/27 04:50:10;;;;;;;2.85;2.40;;;;;;;13.46;86.43;94805.72;5008901;28;20040;-70
2023/05/27 04:52:41;;;;;;;3.10;2.67;;;;;;;13.43;86.53;94798.19;5045553;28;20033;-71
2023/05/27 04:55:08;;;;;;;2.75;2.25;;;;;;;13.48;86.70;94810.78;5032811;28;20108;-70
2023/05/27 04:57:33;;;;;;;3.55;2.58;;;;;;;13.43;86.62;94785.13;5030456;28;20037;-70
2023/05/27 05:02:34;;;;;;;3.70;2.83;;;;;;;13.84;85.78;94809.06;5044898;28;20077;-70
2023/05/27 05:05:10;;;;;;;3.88;2.50;;;;;;;13.93;85.46;94804.75;5031053;28;20029;-70
2023/05/27 05:07:37;;;;;;;3.53;2.83;;;;;;;13.99;85.87;94806.78;5029930;28;20039;-70
2023/05/27 05:10:08;;;;;;;4.85;3.42;;;;;;;13.93;84.20;94802.97;5040357;28;20245;-70
2023/05/27 05:12:35;;;;;;;7.55;6.88;;;;;;;13.85;85.50;94801.09;5048175;28;20040;-71
2023/05/27 05:15:00;;;;;;;7.82;7.13;;;;;;;13.72;85.31;94816.28;5044368;28;20074;-71
2023/05/27 05:17:26;;;;;;;6.60;5.10;;;;;;;13.69;85.56;94803.53;5022502;28;20033;-71
2023/05/27 05:19:52;;;;;;;7.53;6.75;;;;;;;13.88;84.90;94817.44;5011673;28;20558;-71
2023/05/27 05:22:22;;;;;;;6.55;5.60;;;;;;;14.07;84.68;94822.53;5010195;28;20115;-72
2023/05/27 05:24:48;;;;;;;5.45;4.18;;;;;;;14.17;84.20;94820.66;5013687;28;20029;-71
2023/05/27 05:27:14;;;;;;;4.68;3.67;;;;;;;13.99;81.19;94762.41;5029473;28;20122;-71
2023/05/27 05:29:40;;;;;;;6.55;4.22;;;;;;;14.02;81.47;94749.03;5044184;28;20064;-72
2023/05/27 05:32:06;;;;;;;7.22;5.03;;;;;;;14.43;81.97;94822.53;5011698;28;20427;-72
2023/05/27 05:34:31;;;;;;;5.57;4.20;;;;;;;14.19;81.79;94763.06;5027179;28;20123;-72
2023/05/27 05:36:57;;;;;;;4.63;3.50;;;;;;;14.48;81.51;94800.19;5011230;28;20159;-72
2023/05/27 05:39:22;;;;;;;4.05;3.30;;;;;;;14.31;81.20;94756.63;5026561;28;20477;-69
2023/05/27 05:41:48;;;;;;;3.97;3.20;;;;;;;14.39;81.23;94764.53;5009693;28;20060;-71
2023/05/27 05:44:15;;;;;;;4.75;3.20;;;;;;;14.72;81.10;94823.13;5029772;28;20039;-72
2023/05/27 05:46:40;;;;;;;4.82;3.00;;;;;;;14.46;82.29;94765.56;5036888;28;20029;-73
2023/05/27 05:49:06;;;;;;;3.95;3.38;;;;;;;14.91;83.11;94837.00;5023766;28;20521;-72
2023/05/27 05:51:31;;;;;;;3.90;3.28;;;;;;;14.72;78.90;94844.06;5047439;28;20391;-72
2023/05/27 05:53:57;;;;;;;4.43;3.05;;;;;;;14.66;80.37;94836.81;5039517;28;20038;-71
2023/05/27 05:56:23;;;;;;;4.63;2.90;;;;;;;14.83;81.78;94834.34;5034887;28;20029;-71
2023/05/27 05:58:49;;;;;;;3.33;2.97;;;;;;;14.86;82.30;94834.03;5029303;28;20029;-71
2023/05/27 06:01:15;;;;;;;4.22;3.42;;;;;;;14.92;78.23;94838.63;5040932;28;20036;-71
2023/05/27 06:03:41;;;;;;;3.35;2.97;;;;;;;14.94;78.30;94852.38;5016503;28;20033;-72
2023/05/27 06:06:06;;;;;;;4.25;3.53;;;;;;;14.83;78.83;94848.22;5028726;28;20736;-71
2023/05/27 06:08:32;;;;;;;3.90;3.17;;;;;;;14.88;78.06;94853.00;5038057;28;20033;-72
2023/05/27 06:10:57;;;;;;;5.90;3.05;;;;;;;14.82;78.27;94848.34;5040810;28;20041;-71
2023/05/27 06:13:23;;;;;;;6.05;3.45;;;;;;;15.00;77.89;94854.38;5020630;28;20033;-72
2023/05/27 06:15:48;;;;;;;4.40;3.20;;;;;;;15.08;78.55;94848.41;5046374;28;20060;-70
2023/05/27 06:18:14;;;;;;;4.82;3.47;;;;;;;15.06;77.21;94829.41;5027453;28;20021;-74
2023/05/27 06:20:39;;;;;;;4.38;3.67;;;;;;;15.27;78.16;94845.56;5032897;28;20029;-72
2023/05/27 06:23:06;;;;;;;6.35;3.70;;;;;;;15.28;76.99;94855.06;5035548;28;20099;-70
2023/05/27 06:25:32;;;;;;;5.07;3.88;;;;;;;14.92;78.81;94805.44;5030929;28;20049;-74
2023/05/27 06:27:57;;;;;;;5.75;3.70;;;;;;;15.27;79.27;94857.84;5035518;28;20041;-70
2023/05/27 06:30:22;;;;;;;3.63;3.30;;;;;;;15.38;79.93;94858.41;5040666;28;20528;-68
2023/05/27 06:32:48;;;;;;;3.63;3.22;;;;;;;15.33;79.55;94857.22;5039451;28;20411;-70
2023/05/27 06:35:13;;;;;;;5.30;3.65;;;;;;;15.40;78.09;94856.41;5032705;28;20025;-69
2023/05/27 06:37:39;;;;;;;4.63;3.38;;;;;;;15.45;77.49;94861.19;5034289;28;20067;-72
2023/05/27 06:40:05;;;;;;;4.07;3.40;;;;;;;15.45;78.30;94863.00;5049305;28;20079;-72
2023/05/27 06:42:31;;;;;;;3.78;3.38;;;;;;;15.49;78.64;94862.53;5029014;28;20044;-72
2023/05/27 06:44:56;;;;;;;4.93;3.40;;;;;;;15.56;77.56;94867.97;5009970;28;20025;-72
2023/05/27 06:47:21;;;;;;;7.07;3.58;;;;;;;15.36;78.16;94843.81;5045656;28;20087;-71
2023/05/27 06:49:47;;;;;;;6.90;3.88;;;;;;;15.42;78.56;94861.50;5030774;28;20033;-72
2023/05/27 06:52:12;;;;;;;3.97;3.55;;;;;;;15.46;78.59;94867.25;5042582;28;20025;-69
2023/05/27 06:54:38;;;;;;;3.60;3.17;;;;;;;15.63;79.07;94867.19;5017076;28;20047;-71
2023/05/27 06:57:04;;;;;;;6.90;3.47;;;;;;;15.31;79.37;94833.81;5015033;28;20033;-72
2023/05/27 06:59:29;;;;;;;4.50;3.45;;;;;;;15.57;78.81;94869.59;5015944;28;20033;-72
2023/05/27 07:01:56;;;;;;;5.72;3.38;;;;;;;15.63;78.71;94864.56;4998258;28;20033;-72
2023/05/27 07:04:21;;;;;;;4.85;3.50;;;;;;;15.68;78.54;94861.50;5033820;28;20072;-72
2023/05/27 07:06:47;;;;;;;5.30;3.55;;;;;;;15.73;78.81;94866.28;5016572;28;20029;-72
2023/05/27 07:09:13;;;;;;;3.83;3.30;;;;;;;15.82;78.13;94878.41;4999872;28;20124;-72
2023/05/27 07:11:39;;;;;;;4.40;3.65;;;;;;;15.30;78.51;94806.00;5014911;28;20021;-72
2023/05/27 07:14:05;;;;;;;3.72;3.25;;;;;;;15.48;78.55;94802.47;5014378;28;20041;-72
2023/05/27 07:16:30;;;;;;;6.18;3.80;;;;;;;15.48;78.43;94826.84;5030574;28;20026;-72
2023/05/27 07:18:56;;;;;;;4.95;3.45;;;;;;;15.80;78.46;94875.16;5014094;28;20037;-72
2023/05/27 07:21:21;;;;;;;5.85;3.78;;;;;;;15.93;77.94;94872.09;5013962;28;20534;-71
2023/05/27 07:23:47;;;;;;;4.63;3.60;;;;;;;15.82;79.09;94860.09;5013460;28;20045;-72
2023/05/27 07:26:12;;;;;;;5.65;3.75;;;;;;;15.42;79.47;94815.22;5031424;28;20065;-72
2023/05/27 07:28:38;;;;;;;4.97;3.47;;;;;;;15.56;79.82;94820.84;5030742;28;20037;-72
2023/05/27 07:31:04;;;;;;;5.75;3.80;;;;;;;15.58;79.29;94817.09;5014471;28;20026;-72
2023/05/27 07:33:30;;;;;;;4.57;3.85;;;;;;;15.62;78.21;94805.31;5030621;28;20083;-72
2023/05/27 07:35:55;;;;;;;5.43;3.50;;;;;;;16.08;77.55;94855.59;5027289;28;20033;-73
2023/05/27 07:38:21;;;;;;;5.07;3.70;;;;;;;16.20;75.43;94876.25;5015890;28;20380;-73
2023/05/27 07:40:46;;;;;;;6.00;3.47;;;;;;;16.23;76.26;94876.75;5032432;28;20033;-73
2023/05/27 07:43:11;;;;;;;4.00;3.28;;;;;;;16.24;76.77;94869.72;5032009;28;20033;-73
2023/05/27 07:45:37;;;;;;;6.63;3.38;;;;;;;16.58;76.24;94876.69;5033455;28;20037;-74
2023/05/27 07:48:03;;;;;;;4.07;3.35;;;;;;;16.76;74.87;94879.97;5008872;28;20021;-72
2023/05/27 07:50:28;;;;;;;4.25;3.58;;;;;;;16.86;73.90;94870.16;5019115;28;20499;-71
2023/05/27 07:52:53;;;;;;;6.00;3.80;;;;;;;16.96;71.30;94862.94;5035263;28;20033;-74
2023/05/27 07:55:19;;;;;;;6.18;4.22;;;;;;;16.97;73.37;94875.06;5027591;28;20066;-72
2023/05/27 07:57:45;;;;;;;5.18;4.10;;;;;;;17.02;73.69;94863.25;5041908;28;20029;-72
2023/05/27 08:00:10;;;;;;;5.97;4.10;;;;;;;17.10;72.46;94889.50;5021369;28;20033;-72
2023/05/27 08:02:36;;;;;;;5.07;4.18;;;;;;;17.26;70.50;94886.84;5011195;28;20021;-72
2023/05/27 08:05:03;;;;;;;5.72;4.00;;;;;;;16.88;71.24;94883.94;5046910;28;20333;-72
2023/05/27 08:07:29;;;;;;;6.13;4.13;;;;;;;16.72;70.96;94881.28;5045462;28;20033;-71
2023/05/27 08:09:55;;;;;;;6.05;3.90;;;;;;;16.80;70.81;94883.09;5030950;28;20053;-72
2023/05/27 08:12:20;;;;;;;4.07;3.67;;;;;;;17.13;71.17;94886.53;5030225;28;20099;-72
2023/05/27 08:14:45;;;;;;;4.97;3.58;;;;;;;17.09;70.89;94890.50;5046923;28;20044;-71
2023/05/27 08:17:11;;;;;;;7.43;4.40;;;;;;;17.15;74.06;94877.50;5007551;28;20078;-72
2023/05/27 08:19:36;;;;;;;4.45;3.90;;;;;;;17.18;75.91;94871.94;5032383;28;20040;-73
2023/05/27 08:22:03;;;;;;;6.10;4.28;;;;;;;17.24;76.31;94877.50;5046656;28;20028;-73
2023/05/27 08:24:30;;;;;;;5.75;3.90;;;;;;;17.27;74.50;94875.34;5048966;28;20056;-73
2023/05/27 08:26:56;;;;;;;6.72;3.67;;;;;;;17.34;72.58;94875.53;5009028;28;20029;-73
2023/05/27 08:29:21;;;;;;;4.50;3.80;;;;;;;17.43;68.27;94891.09;5028138;28;21025;-73
2023/05/27 08:31:47;;;;;;;3.92;3.53;;;;;;;17.47;72.03;94896.84;5043438;28;20040;-73
2023/05/27 08:34:12;;;;;;;7.95;3.80;;;;;;;17.48;72.29;94879.28;5025386;28;20048;-73
2023/05/27 08:36:38;;;;;;;5.82;4.03;;;;;;;17.40;71.29;94895.88;5011908;28;20029;-73
2023/05/27 08:39:04;;;;;;;5.00;3.60;;;;;;;17.52;74.30;94891.88;5042361;28;20041;-73
2023/05/27 08:41:29;;;;;;;4.70;3.60;;;;;;;17.49;74.56;94883.53;5044468;28;20076;-73
2023/05/27 08:43:55;;;;;;;4.78;3.10;;;;;;;17.40;72.80;94878.28;5026972;28;20041;-72
2023/05/27 08:46:20;;;;;;;5.45;3.30;;;;;;;17.40;74.13;94882.72;5021161;28;20086;-73
2023/05/27 08:48:46;;;;;;;5.00;3.30;;;;;;;17.48;72.54;94881.91;5025028;28;20134;-73
2023/05/27 08:51:13;;;;;;;5.72;3.47;;;;;;;17.55;72.50;94883.69;5033745;28;20099;-73
2023/05/27 08:53:38;;;;;;;6.60;3.90;;;;;;;17.61;74.89;94874.31;5027547;28;20087;-73
2023/05/27 08:56:05;;;;;;;4.72;3.55;;;;;;;17.60;75.44;94872.66;5021459;28;20033;-73
2023/05/27 08:58:31;;;;;;;9.70;3.75;;;;;;;17.52;71.35;94872.69;5008441;28;20053;-73
2023/05/27 09:00:57;;;;;;;6.10;3.83;;;;;;;17.67;68.69;94872.84;5009389;28;20242;-73
2023/05/27 09:03:23;;;;;;;7.68;4.20;;;;;;;17.57;69.53;94865.13;5002436;28;20040;-73
2023/05/27 09:05:48;;;;;;;5.55;4.30;;;;;;;17.36;69.61;94850.75;5023428;28;20048;-73
2023/05/27 09:08:14;;;;;;;6.18;4.57;;;;;;;17.80;71.71;94867.88;5024377;28;20139;-73
2023/05/27 09:10:40;;;;;;;6.43;4.30;;;;;;;17.62;72.14;94865.44;5040979;28;20110;-73
2023/05/27 09:13:05;;;;;;;6.80;4.47;;;;;;;17.79;68.25;94850.47;5006836;28;20036;-72
2023/05/27 09:15:31;;;;;;;6.63;4.15;;;;;;;17.45;64.31;94869.94;5006336;28;20022;-74
2023/05/27 09:17:57;;;;;;;6.68;4.38;;;;;;;17.42;67.56;94871.06;5025604;28;20029;-73
2023/05/27 09:20:26;;;;;;;5.60;4.03;;;;;;;17.46;67.71;94850.53;5039094;28;20487;-71
2023/05/27 09:22:59;;;;;;;6.82;4.10;;;;;;;17.43;67.46;94833.31;5028384;28;20555;-72
2023/05/27 09:25:25;;;;;;;6.57;3.63;;;;;;;17.76;66.63;94866.56;5041836;28;20592;-70
2023/05/27 09:27:51;;;;;;;4.85;3.90;;;;;;;17.93;65.78;94869.97;5024145;28;21050;-72
2023/05/27 09:30:19;;;;;;;5.53;3.70;;;;;;;17.80;61.02;94850.31;5026468;28;20052;-72
2023/05/27 09:32:45;;;;;;;4.53;3.67;;;;;;;18.15;60.20;94858.69;5041312;28;20028;-72
2023/05/27 09:35:11;;;;;;;6.43;3.80;;;;;;;18.37;60.55;94856.28;5024289;28;20029;-73
2023/05/27 09:37:36;;;;;;;7.18;3.85;;;;;;;18.36;63.36;94862.50;5041187;28;20035;-73
2023/05/27 09:40:06;;;;;;;4.57;4.15;;;;;;;18.29;61.84;94842.19;5029622;28;20203;-72
2023/05/27 09:42:44;;;;;;;5.73;4.20;;;;;;;18.57;61.78;94851.38;5027461;28;20043;-73
2023/05/27 09:45:15;;;;;;;7.05;3.92;;;;;;;18.98;61.81;94844.81;5043728;28;20848;-73
2023/05/27 09:47:41;;;;;;;6.85;4.07;;;;;;;18.97;60.85;94848.47;5029493;28;20469;-73
2023/05/27 09:50:09;;;;;;;7.20;4.22;;;;;;;18.86;60.78;94838.38;5046232;28;20456;-73
2023/05/27 09:52:37;;;;;;;9.15;4.80;;;;;;;18.81;59.57;94853.03;5030298;28;20063;-73
2023/05/27 09:55:02;;;;;;;5.40;4.40;;;;;;;19.11;59.59;94833.69;5037045;28;20063;-72
2023/05/27 09:57:28;;;;;;;7.38;4.10;;;;;;;19.14;58.71;94843.06;5028181;28;20499;-73
2023/05/27 09:59:54;;;;;;;9.00;4.70;;;;;;;18.98;58.94;94839.56;5028820;28;20033;-73
2023/05/27 10:02:19;;;;;;;6.63;4.57;;;;;;;19.16;59.76;94844.50;5038164;28;20052;-72
2023/05/27 10:04:48;;;;;;;5.70;4.18;;;;;;;19.40;58.81;94837.38;5027208;28;20037;-73
2023/05/27 10:07:14;;;;;;;4.80;3.65;;;;;;;19.27;58.36;94845.06;5028992;28;20435;-73
2023/05/27 10:09:40;;;;;;;4.95;4.10;;;;;;;19.25;57.81;94837.34;5012644;28;20507;-73
2023/05/27 10:12:05;;;;;;;4.68;3.88;;;;;;;18.94;58.05;94790.09;5029251;28;20029;-73
2023/05/27 10:14:31;;;;;;;5.93;4.15;;;;;;;18.86;58.84;94837.53;5012027;28;20079;-73
2023/05/27 10:16:56;;;;;;;6.88;3.90;;;;;;;19.08;59.71;94830.59;5009374;28;20422;-73
2023/05/27 10:19:22;;;;;;;5.30;4.00;;;;;;;18.93;60.71;94822.66;5046903;28;20044;-73
2023/05/27 10:21:47;;;;;;;4.88;3.78;;;;;;;18.95;60.53;94849.63;5029086;28;20037;-72
2023/05/27 10:24:13;;;;;;;5.22;3.95;;;;;;;19.09;57.67;94829.63;5031119;28;20075;-73
2023/05/27 10:26:40;;;;;;;5.88;4.60;;;;;;;19.04;58.05;94832.78;5014712;28;20033;-73
2023/05/27 10:29:09;;;;;;;4.70;4.10;;;;;;;19.27;57.32;94839.78;5035476;28;20407;-72
2023/05/27 10:31:38;;;;;;;4.72;4.20;;;;;;;19.07;57.48;94827.16;5051897;28;20502;-73
2023/05/27 10:34:05;;;;;;;5.72;4.10;;;;;;;19.01;56.59;94766.50;5029420;28;20041;-73
2023/05/27 10:36:36;;;;;;;6.72;4.65;;;;;;;19.28;58.06;94830.88;5026161;28;20025;-73
2023/05/27 10:39:04;;;;;;;;;;;;;;;19.57;57.20;94827.47;5046632;28;20040;-72
2023/05/27 10:41:41;;;;;;;6.20;3.53;;;;;;;19.05;57.70;94780.94;5033174;28;19912;-73
2023/05/27 10:44:07;;;;;;;4.90;3.50;;;;;;;19.42;57.39;94827.47;5016440;28;20508;-73
2023/05/27 10:46:40;;;;;;;7.72;3.60;;;;;;;19.35;57.34;94821.28;5010656;28;20059;-73
2023/05/27 10:49:22;;;;;;;5.15;3.80;;;;;;;18.92;59.32;94831.56;5049032;28;20479;-72
2023/05/27 10:51:47;;;;;;;4.88;3.90;;;;;;;18.98;58.49;94833.50;5046545;28;20056;-72
2023/05/27 10:54:13;;;;;;;6.97;4.10;;;;;;;19.05;58.45;94829.13;5049241;28;20041;-71
2023/05/27 10:56:53;;;;;;;4.95;3.83;;;;;;;18.85;58.50;94820.09;5044879;28;20053;-72
2023/05/27 10:59:22;;;;;;;5.85;4.25;;;;;;;19.07;59.21;94828.97;5047640;28;20044;-72
2023/05/27 11:01:51;;;;;;;5.55;3.70;;;;;;;18.69;58.13;94750.81;5028693;28;20037;-71
2023/05/27 11:04:16;;;;;;;5.43;4.00;;;;;;;18.97;59.23;94816.03;5035501;28;20037;-71
2023/05/27 11:06:42;;;;;;;4.60;4.03;;;;;;;18.53;59.05;94809.66;5031640;28;20469;-71
2023/05/27 11:09:10;;;;;;;6.47;4.07;;;;;;;18.49;59.76;94805.72;5031918;28;20486;-71
2023/05/27 11:11:37;;;;;;;8.93;4.35;;;;;;;18.73;61.34;94814.44;5048441;28;20540;-71
2023/05/27 11:14:02;;;;;;;7.72;4.32;;;;;;;18.75;59.56;94812.47;5015786;28;20395;-71
2023/05/27 11:16:28;;;;;;;6.53;4.80;;;;;;;18.82;59.01;94823.91;5026851;28;20033;-71
2023/05/27 11:18:53;;;;;;;5.95;4.30;;;;;;;18.95;58.60;94812.78;5048387;28;20060;-72
2023/05/27 11:21:19;;;;;;;5.45;4.45;;;;;;;18.85;56.86;94804.31;5030364;28;20053;-71
2023/05/27 11:23:46;;;;;;;7.22;4.53;;;;;;;18.55;59.58;94804.19;5016655;28;20470;-71
2023/05/27 11:26:22;;;;;;;4.97;4.47;;;;;;;18.64;59.17;94792.63;5029575;28;20025;-72
2023/05/27 11:28:54;;;;;;;6.85;4.22;;;;;;;18.74;59.99;94809.00;5031347;28;20443;-72